createdAt,value
2022-10-17T00:01:27.731Z,22.96
2022-10-17T00:06:34.637Z,22.91
2022-10-17T00:11:40.328Z,22.87
2022-10-17T00:16:45.183Z,22.84
2022-10-17T00:22:00.323Z,22.83
2022-10-17T00:27:03.679Z,22.81
2022-10-17T00:32:12.098Z,22.80
2022-10-17T00:37:23.868Z,22.78
2022-10-17T00:42:28.702Z,22.78
2022-10-17T00:47:35.741Z,22.78
2022-10-17T01:05:36.919Z,22.71
2022-10-17T01:11:15.448Z,22.64
2022-10-17T01:16:37.842Z,22.59
2022-10-17T01:21:52.000Z,22.54
2022-10-17T01:27:34.287Z,22.50
2022-10-17T01:32:55.449Z,22.46
2022-10-17T01:38:16.463Z,22.43
2022-10-17T01:43:29.922Z,22.41
2022-10-17T01:48:48.013Z,22.37
2022-10-17T01:53:59.477Z,22.35
2022-10-17T01:59:30.348Z,22.36
2022-10-17T02:04:36.741Z,22.34
2022-10-17T02:09:48.024Z,22.34
2022-10-17T02:15:09.012Z,22.35
2022-10-17T02:21:11.472Z,22.33
2022-10-17T02:26:50.905Z,22.32
2022-10-17T02:32:14.919Z,22.30
2022-10-17T02:37:39.297Z,22.29
2022-10-17T02:42:56.755Z,22.29
2022-10-17T02:48:12.593Z,22.32
2022-10-17T02:53:37.674Z,22.35
2022-10-17T02:58:58.046Z,22.39
2022-10-17T03:04:16.472Z,22.41
2022-10-17T03:09:21.676Z,22.40
2022-10-17T03:14:26.040Z,22.39
2022-10-17T03:19:31.054Z,22.39
2022-10-17T03:24:36.565Z,22.38
2022-10-17T03:29:46.793Z,22.39
2022-10-17T03:34:58.960Z,22.38
2022-10-17T03:40:00.973Z,22.40
2022-10-17T03:45:12.802Z,22.40
2022-10-17T03:50:25.460Z,22.39
2022-10-17T03:55:29.713Z,22.37
2022-10-17T04:05:49.119Z,22.34
2022-10-17T04:10:57.818Z,22.32
2022-10-17T04:42:18.135Z,22.39
2022-10-17T04:47:27.784Z,22.39
2022-10-17T04:53:00.565Z,22.37
2022-10-17T05:03:18.208Z,22.37
2022-10-17T05:13:39.489Z,22.34
2022-10-17T05:18:44.489Z,22.34
2022-10-17T05:23:51.533Z,22.32
2022-10-17T05:28:54.808Z,22.32
2022-10-17T05:34:02.708Z,22.31
2022-10-17T05:39:11.553Z,22.31
2022-10-17T05:44:21.398Z,22.30
2022-10-17T05:49:45.196Z,22.29
2022-10-17T05:54:57.526Z,22.28
2022-10-17T06:00:01.004Z,22.28
2022-10-17T06:05:26.056Z,22.15
2022-10-17T06:10:29.007Z,22.05
2022-10-17T06:15:34.925Z,21.97
2022-10-17T06:20:45.289Z,21.96
2022-10-17T06:25:53.394Z,21.93
2022-10-17T06:31:00.035Z,21.90
2022-10-17T06:36:03.298Z,21.89
2022-10-17T06:41:19.952Z,21.89
2022-10-17T06:46:30.666Z,21.89
2022-10-17T06:51:44.043Z,21.90
2022-10-17T06:56:51.000Z,21.94
2022-10-17T07:02:26.032Z,21.97
2022-10-17T07:07:32.623Z,22.03
2022-10-17T07:12:35.221Z,22.21
2022-10-17T07:17:37.207Z,22.51
2022-10-17T07:22:39.438Z,22.83
2022-10-17T07:33:03.689Z,23.00
2022-10-17T07:38:06.829Z,22.90
2022-10-17T07:43:12.739Z,22.80
2022-10-17T07:48:16.043Z,22.72
2022-10-17T07:53:32.355Z,22.67
2022-10-17T07:58:48.616Z,22.66
2022-10-17T08:03:54.316Z,22.67
2022-10-17T08:09:02.430Z,22.73
2022-10-17T08:14:05.909Z,22.82
2022-10-17T08:19:22.232Z,23.03
2022-10-17T08:24:42.852Z,23.38
2022-10-17T08:29:52.009Z,23.65
2022-10-17T08:35:04.462Z,23.81
2022-10-17T08:40:26.746Z,24.01
2022-10-17T08:45:50.393Z,24.09
2022-10-17T08:51:29.298Z,24.10
2022-10-17T08:57:01.117Z,24.12
2022-10-17T09:02:47.147Z,24.21
2022-10-17T09:08:28.519Z,24.54
2022-10-17T09:14:06.122Z,24.97
2022-10-17T09:25:00.011Z,25.62
2022-10-17T09:30:44.721Z,25.56
2022-10-17T09:35:52.695Z,25.65
2022-10-17T09:41:19.999Z,25.81
2022-10-17T09:46:38.895Z,25.57
2022-10-17T09:51:56.218Z,25.33
2022-10-17T09:57:14.063Z,25.27
2022-10-17T10:02:26.452Z,25.37
2022-10-17T10:07:32.534Z,25.19
2022-10-17T10:12:43.057Z,25.23
2022-10-17T10:17:55.341Z,25.51
2022-10-17T10:23:24.749Z,25.78
2022-10-17T10:28:35.172Z,25.81
2022-10-17T10:33:48.141Z,26.00
2022-10-17T10:39:18.397Z,26.25
2022-10-17T10:50:26.248Z,26.84
2022-10-17T10:55:46.580Z,27.26
2022-10-17T11:01:01.790Z,27.52
2022-10-17T11:06:21.545Z,27.79
2022-10-17T11:11:47.564Z,27.92
2022-10-17T11:17:13.992Z,27.87
2022-10-17T11:23:05.111Z,27.93
2022-10-17T11:28:21.712Z,27.85
2022-10-17T11:33:38.492Z,27.93
2022-10-17T11:39:10.699Z,27.77
2022-10-17T11:44:33.207Z,27.71
2022-10-17T11:49:55.071Z,27.86
2022-10-17T11:55:10.378Z,28.05
2022-10-17T12:06:19.125Z,27.91
2022-10-17T12:12:01.355Z,28.11
2022-10-17T12:17:25.022Z,28.18
2022-10-17T12:22:31.590Z,27.97
2022-10-17T12:27:40.552Z,27.65
2022-10-17T12:33:22.704Z,27.50
2022-10-17T12:38:35.712Z,27.23
2022-10-17T12:43:45.009Z,26.94
2022-10-17T12:49:06.385Z,26.71
2022-10-17T12:54:22.415Z,26.53
2022-10-17T12:59:49.491Z,26.56
2022-10-17T13:05:08.414Z,26.43
2022-10-17T13:10:47.910Z,26.11
2022-10-17T13:15:59.194Z,25.77
2022-10-17T13:26:46.308Z,25.57
2022-10-17T13:32:12.636Z,25.56
2022-10-17T13:37:24.685Z,25.58
2022-10-17T13:42:42.431Z,25.50
2022-10-17T13:47:50.977Z,25.48
2022-10-17T13:53:32.783Z,25.49
2022-10-17T13:59:01.213Z,25.71
2022-10-17T14:04:10.207Z,26.00
2022-10-17T14:09:45.210Z,26.17
2022-10-17T14:15:11.001Z,26.22
2022-10-17T14:25:51.046Z,26.34
2022-10-17T14:31:21.233Z,26.39
2022-10-17T14:36:34.653Z,26.36
2022-10-17T14:41:45.774Z,26.39
2022-10-17T14:47:38.067Z,26.42
2022-10-17T14:53:20.492Z,26.43
2022-10-17T14:58:39.458Z,26.42
2022-10-17T15:03:46.102Z,26.38
2022-10-17T15:08:53.167Z,26.31
2022-10-17T15:13:57.978Z,26.26
2022-10-17T15:19:04.732Z,26.22
2022-10-17T15:24:13.221Z,26.01
2022-10-17T15:29:21.269Z,25.73
2022-10-17T15:34:32.054Z,25.54
2022-10-17T15:39:37.459Z,25.47
2022-10-17T15:44:45.549Z,25.44
2022-10-17T15:49:59.219Z,25.32
2022-10-17T15:55:06.670Z,25.26
2022-10-17T16:00:27.464Z,25.20
2022-10-17T16:05:52.125Z,25.08
2022-10-17T16:10:59.505Z,24.97
2022-10-17T16:16:06.882Z,24.93
2022-10-17T16:21:18.519Z,24.89
2022-10-17T16:26:36.705Z,24.83
2022-10-17T16:31:54.988Z,24.75
2022-10-17T16:37:00.500Z,24.73
2022-10-17T16:42:07.385Z,24.66
2022-10-17T16:47:14.945Z,24.59
2022-10-17T16:52:21.944Z,24.49
2022-10-17T16:57:30.833Z,24.42
2022-10-17T17:02:40.298Z,24.37
2022-10-17T17:07:48.622Z,24.31
2022-10-17T17:12:52.664Z,24.27
2022-10-17T17:17:58.699Z,24.24
2022-10-17T17:23:15.735Z,24.21
2022-10-17T17:28:18.970Z,24.19
2022-10-17T17:33:27.280Z,24.19
2022-10-17T17:38:31.107Z,24.20
2022-10-17T17:43:34.319Z,24.21
2022-10-17T17:48:48.111Z,24.20
2022-10-17T17:53:57.162Z,24.17
2022-10-17T17:59:12.126Z,24.14
2022-10-17T18:04:18.705Z,24.10
2022-10-17T18:09:26.741Z,24.04
2022-10-17T18:14:33.395Z,24.00
2022-10-17T18:20:02.187Z,23.95
2022-10-17T18:25:13.037Z,23.89
2022-10-17T18:30:21.220Z,23.85
2022-10-17T18:35:30.335Z,23.82
2022-10-17T18:40:39.786Z,23.79
2022-10-17T18:45:44.344Z,23.77
2022-10-17T18:51:08.391Z,23.77
2022-10-17T18:56:14.218Z,23.75
2022-10-17T19:01:22.982Z,23.73
2022-10-17T19:06:45.492Z,23.72
2022-10-17T19:11:55.588Z,23.72
2022-10-17T19:17:06.126Z,23.72
2022-10-17T19:22:11.196Z,23.72
2022-10-17T19:27:16.315Z,23.72
2022-10-17T19:32:22.916Z,23.69
2022-10-17T19:37:31.789Z,23.73
2022-10-17T19:42:42.668Z,23.75
2022-10-17T19:47:51.898Z,23.75
2022-10-17T19:52:58.611Z,23.73
2022-10-17T19:58:05.690Z,23.76
2022-10-17T20:03:17.592Z,23.77
2022-10-17T20:08:23.343Z,23.78
2022-10-17T20:13:34.874Z,23.78
2022-10-17T20:18:38.270Z,23.78
2022-10-17T20:23:55.581Z,23.81
2022-10-17T20:29:05.253Z,23.84
2022-10-17T20:34:16.021Z,23.81
2022-10-17T20:39:31.056Z,23.80
2022-10-17T20:44:38.574Z,23.80
2022-10-17T20:49:52.527Z,23.76
2022-10-17T20:54:59.057Z,23.73
2022-10-17T21:00:08.192Z,23.75
2022-10-17T21:05:16.619Z,23.76
2022-10-17T21:10:35.306Z,23.74
2022-10-17T21:15:43.808Z,23.74
2022-10-17T21:20:48.296Z,23.76
2022-10-17T21:25:56.177Z,23.73
2022-10-17T21:31:12.182Z,23.72
2022-10-17T21:36:20.647Z,23.68
2022-10-17T21:41:33.871Z,23.71
2022-10-17T21:46:39.729Z,23.67
2022-10-17T21:51:46.066Z,23.64
2022-10-17T21:56:53.240Z,23.63
2022-10-17T22:01:58.068Z,23.63
2022-10-17T22:07:09.859Z,23.62
2022-10-17T22:12:13.044Z,23.60
2022-10-17T22:17:17.298Z,23.57
2022-10-17T22:22:21.312Z,23.55
2022-10-17T22:27:32.755Z,23.54
2022-10-17T22:32:37.757Z,23.52
2022-10-17T22:37:44.102Z,23.51
2022-10-17T22:48:12.774Z,23.51
2022-10-17T22:53:23.826Z,23.51
2022-10-17T22:58:31.259Z,23.51
2022-10-17T23:03:42.449Z,23.50
2022-10-17T23:08:46.084Z,23.49
2022-10-17T23:13:53.198Z,23.47
2022-10-17T23:18:55.894Z,23.43
2022-10-17T23:24:03.145Z,23.36
2022-10-17T23:29:13.414Z,23.29
2022-10-17T23:34:17.795Z,23.25
2022-10-17T23:39:23.608Z,23.16
2022-10-17T23:44:26.892Z,23.06
2022-10-17T23:49:31.071Z,22.98
2022-10-17T23:54:35.933Z,22.92
2022-10-17T23:59:39.452Z,22.85
